Strona główna
METAR-TAF:

METAR-TAF

Lotnisko :

Butterworth, Malezja

Szerokość geograficzna: 05-27-58N, Długość geograficzna: 100-23-28E, wysokość: 2 m

Aktualna obserwacja pogody

Raport powstał 54 minut temu, godzina 05:00 UTC
Wiatr 4 kt od zachód, zmienny między południe i północno-północny zachód
Temperatura 32°C
Wilgotność 63%
Ciśnienie 1009 hPa
Widzialność: 9000 m
Mało chmury na wysokości 2000 ft

METAR: WMKB 280500Z 26004KT 190V330 9000 FEW020 32/24 Q1009 NOSIG

czas: 13:54 (05:54 UTC)

Prognoza

Raport powstał 54 minut temu, godzina 05:00 UTC
Prognoza ważna od 28 godzina 06 UTC do 29 godzina 06 UTC
Wiatr 10 kt od zachodnio-północny zachód
Widzialność 10 km lub więcej
Mało chmury na wysokości 2000 ft
Stopniowe zmiany
od 28 godzina 12 UTC do 28 godzina 14 UTC
Wiatr 5 kt od wschód
Widzialność: 8000 m
Mało chmury na wysokości 2400 ft

TAF: WMKB 280500Z 2806/2906 30010KT 9999 FEW020 BECMG 2812/2814 08005KT 8000 FEW024

Obserwacja i prognoza pogody dla ponad 4000 lotnisk (raport METAR i TAF).

Dostępne stacje oznaczono żółtymi i czerwonymi punktami na mapie.

Najedź kursorem aby zobaczyć nazwę stacji.

Kliknij aby zobaczyć obserwacje i prognozy pogody.

Aby zmienić mapę: kliknij na zielony przycisk z czarnym krzyżykiem, aby powiększyć; na zielony przycisk z myślnikiem, aby pomniejszyć; na zielone strzałki, aby przejść do map sąsiednich.


METAR-TAF: